createdAt,value
2018-11-23T00:00:23.904Z,15.72
2018-11-23T00:02:53.954Z,15.27
2018-11-23T00:05:23.500Z,12.90
2018-11-23T00:07:53.896Z,14.73
2018-11-23T00:10:24.122Z,13.90
2018-11-23T00:12:53.309Z,15.40
2018-11-23T00:15:23.622Z,14.67
2018-11-23T00:17:52.948Z,10.60
2018-11-23T00:20:23.475Z,12.60
2018-11-23T00:22:52.567Z,12.80
2018-11-23T00:25:23.322Z,10.03
2018-11-23T00:27:52.911Z,13.03
2018-11-23T00:30:23.438Z,13.47
2018-11-23T00:32:53.049Z,13.90
2018-11-23T00:35:23.579Z,14.10
2018-11-23T00:37:53.272Z,12.97
2018-11-23T00:40:23.719Z,14.23
2018-11-23T00:42:53.331Z,13.88
2018-11-23T00:45:22.476Z,11.70
2018-11-23T00:47:53.062Z,12.37
2018-11-23T00:50:23.556Z,12.68
2018-11-23T00:55:46.210Z,9.23
2018-11-23T01:04:07.694Z,13.87
2018-11-23T01:06:37.026Z,14.63
2018-11-23T01:09:10.796Z,11.10
2018-11-23T01:11:40.343Z,18.57
2018-11-23T01:14:09.451Z,11.00
2018-11-23T01:16:38.593Z,13.77
2018-11-23T01:19:08.199Z,11.10
2018-11-23T01:21:37.749Z,13.97
2018-11-23T01:24:07.078Z,13.10
2018-11-23T01:26:36.188Z,15.70
2018-11-23T01:29:05.609Z,14.55
2018-11-23T01:31:34.961Z,11.40
2018-11-23T01:34:04.534Z,10.50
2018-11-23T01:36:33.845Z,14.20
2018-11-23T01:39:04.285Z,13.23
2018-11-23T01:41:33.627Z,12.53
2018-11-23T01:44:02.960Z,11.40
2018-11-23T01:46:32.072Z,13.50
2018-11-23T01:49:01.435Z,13.90
2018-11-23T01:51:30.758Z,12.43
2018-11-23T01:54:00.099Z,11.93
2018-11-23T01:56:29.748Z,12.53
2018-11-23T01:58:59.054Z,11.50
2018-11-23T02:01:28.155Z,13.70
2018-11-23T02:03:57.249Z,12.30
2018-11-23T02:06:26.590Z,12.73
2018-11-23T02:08:56.141Z,12.67
2018-11-23T02:11:25.691Z,14.20
2018-11-23T02:13:54.996Z,15.50
2018-11-23T02:16:24.462Z,13.83
2018-11-23T02:18:54.378Z,10.00
2018-11-23T02:21:23.745Z,16.83
2018-11-23T02:23:53.073Z,11.37
2018-11-23T02:26:22.403Z,12.33
2018-11-23T02:28:51.738Z,14.23
2018-11-23T02:31:26.754Z,12.73
2018-11-23T02:33:56.346Z,14.10
2018-11-23T02:36:25.717Z,13.58
2018-11-23T02:38:55.467Z,11.67
2018-11-23T02:41:24.806Z,9.67
2018-11-23T02:43:54.112Z,15.57
2018-11-23T02:46:23.229Z,11.50
2018-11-23T02:48:52.773Z,11.83
2018-11-23T02:51:22.094Z,13.90
2018-11-23T02:53:51.426Z,16.73
2018-11-23T02:56:21.009Z,12.75
2018-11-23T02:58:50.334Z,13.10
2018-11-23T03:01:19.654Z,13.17
2018-11-23T03:03:49.210Z,14.10
2018-11-23T03:06:18.526Z,13.50
2018-11-23T03:08:47.882Z,10.00
2018-11-23T03:11:17.203Z,11.73
2018-11-23T03:13:46.545Z,11.40
2018-11-23T03:16:16.098Z,10.60
2018-11-23T03:18:45.655Z,12.97
2018-11-23T03:21:14.971Z,9.77
2018-11-23T03:23:44.069Z,11.40
2018-11-23T03:26:13.193Z,12.73
2018-11-23T03:28:42.520Z,12.60
2018-11-23T03:31:12.393Z,10.97
2018-11-23T03:33:41.177Z,12.07
2018-11-23T03:36:10.717Z,11.83
2018-11-23T03:38:40.046Z,10.27
2018-11-23T03:41:09.395Z,11.50
2018-11-23T03:43:38.954Z,12.85
2018-11-23T03:46:09.226Z,13.70
2018-11-23T03:48:38.897Z,15.23
2018-11-23T03:51:08.733Z,10.50
2018-11-23T03:53:38.097Z,12.73
2018-11-23T03:56:07.447Z,12.03
2018-11-23T03:58:37.010Z,14.03
2018-11-23T04:01:06.344Z,11.10
2018-11-23T04:03:35.449Z,10.90
2018-11-23T04:06:05.392Z,10.70
2018-11-23T04:08:34.495Z,11.60
2018-11-23T04:11:03.590Z,11.67
2018-11-23T04:13:32.690Z,12.30
2018-11-23T04:16:02.522Z,10.60
2018-11-23T04:18:31.863Z,11.83
2018-11-23T04:21:02.497Z,10.60
2018-11-23T04:23:33.054Z,10.80
2018-11-23T04:26:03.013Z,13.60
2018-11-23T04:28:32.110Z,12.30
2018-11-23T04:31:01.499Z,12.67
2018-11-23T04:33:30.817Z,13.22
2018-11-23T04:36:00.153Z,10.30
2018-11-23T04:38:29.472Z,11.60
2018-11-23T04:40:58.837Z,9.47
2018-11-23T04:43:28.405Z,14.50
2018-11-23T04:45:57.705Z,11.10
2018-11-23T04:48:27.063Z,13.33
2018-11-23T04:50:56.627Z,15.78
2018-11-23T04:53:25.937Z,16.83
2018-11-23T04:55:55.035Z,13.70
2018-11-23T04:58:24.149Z,12.70
2018-11-23T05:00:53.530Z,12.70
2018-11-23T05:03:22.858Z,11.73
2018-11-23T05:05:52.206Z,13.97
2018-11-23T05:08:21.580Z,12.10
2018-11-23T05:10:50.889Z,11.90
2018-11-23T05:13:20.457Z,11.87
2018-11-23T05:15:50.093Z,11.70
2018-11-23T05:18:19.395Z,12.73
2018-11-23T05:20:48.510Z,10.40
2018-11-23T05:23:17.608Z,11.80
2018-11-23T05:25:46.958Z,12.17
2018-11-23T05:28:16.518Z,11.67
2018-11-23T05:30:46.563Z,12.90
2018-11-23T05:33:16.413Z,12.53
2018-11-23T05:35:45.774Z,11.70
2018-11-23T05:38:15.338Z,14.73
2018-11-23T05:40:44.661Z,12.10
2018-11-23T05:43:13.753Z,12.83
2018-11-23T05:45:42.872Z,10.40
2018-11-23T05:48:12.223Z,12.13
2018-11-23T05:50:41.541Z,13.00
2018-11-23T05:53:11.397Z,14.23
2018-11-23T05:55:40.720Z,9.63
2018-11-23T05:58:10.268Z,14.60
2018-11-23T06:00:39.594Z,15.40
2018-11-23T06:03:09.190Z,15.60
2018-11-23T06:05:38.497Z,13.37
2018-11-23T06:08:07.611Z,12.80
2018-11-23T06:10:36.958Z,12.57
2018-11-23T06:13:06.269Z,14.50
2018-11-23T06:15:35.619Z,15.13
2018-11-23T06:18:05.042Z,12.33
2018-11-23T06:20:34.152Z,10.73
2018-11-23T06:23:03.548Z,13.07
2018-11-23T06:25:33.855Z,12.30
2018-11-23T06:28:02.956Z,11.30
2018-11-23T06:30:32.310Z,11.50
2018-11-23T06:33:07.310Z,12.47
2018-11-23T06:35:36.419Z,12.37
2018-11-23T06:38:05.549Z,12.70
2018-11-23T06:40:34.898Z,12.40
2018-11-23T06:43:04.733Z,13.70
2018-11-23T06:45:36.486Z,12.87
2018-11-23T06:48:06.298Z,12.90
2018-11-23T06:50:35.881Z,10.40
2018-11-23T06:53:05.461Z,12.83
2018-11-23T06:55:34.782Z,13.87
2018-11-23T06:58:03.913Z,10.40
2018-11-23T07:00:33.021Z,12.27
2018-11-23T07:03:02.372Z,14.07
2018-11-23T07:05:31.748Z,12.20
2018-11-23T07:08:00.892Z,13.57
2018-11-23T07:10:29.979Z,11.43
2018-11-23T07:12:59.825Z,12.97
2018-11-23T07:15:29.160Z,10.27
2018-11-23T07:17:58.743Z,12.33
2018-11-23T07:20:28.070Z,9.53
2018-11-23T07:22:57.429Z,9.53
2018-11-23T07:25:27.218Z,10.30
2018-11-23T07:27:56.538Z,12.13
2018-11-23T07:30:27.051Z,14.37
2018-11-23T07:32:57.386Z,12.87
2018-11-23T07:35:26.721Z,11.50
2018-11-23T07:37:56.097Z,9.97
2018-11-23T07:40:32.853Z,9.77
2018-11-23T07:43:02.426Z,9.43
2018-11-23T07:50:26.300Z,18.10
2018-11-23T07:52:55.416Z,16.03
2018-11-23T07:55:24.763Z,12.40
2018-11-23T07:57:54.113Z,24.15
2018-11-23T08:00:24.605Z,16.70
2018-11-23T08:02:53.981Z,31.20
2018-11-23T08:05:23.134Z,29.10
2018-11-23T08:07:52.217Z,29.60
2018-11-23T08:10:20.826Z,25.07
2018-11-23T08:12:51.830Z,20.97
2018-11-23T08:15:22.861Z,24.00
2018-11-23T08:17:52.853Z,22.53
2018-11-23T08:20:23.613Z,22.30
2018-11-23T08:22:53.206Z,19.03
2018-11-23T08:25:24.104Z,32.57
2018-11-23T08:27:54.878Z,32.97
2018-11-23T08:30:26.965Z,23.47
2018-11-23T08:32:56.861Z,30.07
2018-11-23T08:35:27.230Z,33.77
2018-11-23T08:37:56.856Z,35.53
2018-11-23T08:40:27.035Z,51.73
2018-11-23T08:42:56.955Z,69.30
2018-11-23T08:45:27.185Z,60.33
2018-11-23T08:47:56.298Z,71.23
2018-11-23T08:50:30.052Z,48.23
2018-11-23T08:53:00.043Z,58.92
2018-11-23T08:55:29.723Z,71.73
2018-11-23T08:58:00.218Z,54.43
2018-11-23T09:00:29.338Z,39.87
2018-11-23T09:02:59.963Z,43.47
2018-11-23T09:05:29.310Z,41.13
2018-11-23T09:07:58.881Z,37.13
2018-11-23T09:10:28.811Z,34.93
2018-11-23T09:12:59.098Z,36.05
2018-11-23T09:15:28.207Z,46.83
2018-11-23T09:17:57.550Z,29.87
2018-11-23T09:20:27.122Z,27.32
2018-11-23T09:22:56.738Z,29.93
2018-11-23T09:25:26.016Z,24.45
2018-11-23T09:27:55.419Z,24.60
2018-11-23T09:30:26.148Z,27.10
2018-11-23T09:32:56.205Z,29.85
2018-11-23T09:35:25.808Z,25.20
2018-11-23T09:37:55.171Z,26.53
2018-11-23T09:40:26.001Z,29.53
2018-11-23T09:42:56.160Z,30.00
2018-11-23T09:45:27.177Z,33.30
2018-11-23T09:47:58.133Z,22.63
2018-11-23T09:50:27.725Z,23.03
2018-11-23T09:52:58.273Z,20.03
2018-11-23T09:55:28.705Z,22.37
2018-11-23T09:57:58.327Z,22.87
2018-11-23T10:00:30.184Z,17.47
2018-11-23T10:02:59.824Z,24.10
2018-11-23T10:05:30.256Z,23.23
2018-11-23T10:08:02.070Z,29.27
2018-11-23T10:10:31.202Z,20.37
2018-11-23T10:13:00.618Z,23.80
2018-11-23T10:15:31.181Z,23.37
2018-11-23T10:18:00.682Z,21.00
2018-11-23T10:20:31.639Z,18.70
2018-11-23T10:23:01.028Z,17.03
2018-11-23T10:25:31.782Z,19.07
2018-11-23T10:28:00.891Z,17.37
2018-11-23T10:30:31.627Z,22.60
2018-11-23T10:33:02.743Z,23.73
2018-11-23T10:35:32.695Z,18.50
2018-11-23T10:38:03.723Z,17.52
2018-11-23T10:40:34.638Z,16.75
2018-11-23T10:43:04.924Z,21.90
2018-11-23T10:45:34.960Z,17.80
2018-11-23T10:48:05.618Z,17.50
2018-11-23T10:50:36.621Z,18.80
2018-11-23T10:53:06.009Z,22.03
2018-11-23T10:55:36.600Z,14.80
2018-11-23T10:58:05.979Z,18.70
2018-11-23T11:00:40.872Z,16.60
2018-11-23T11:03:15.516Z,17.57
2018-11-23T11:08:34.180Z,18.83
2018-11-23T11:11:04.193Z,19.50
2018-11-23T11:13:33.592Z,19.90
2018-11-23T11:16:02.707Z,17.63
2018-11-23T11:18:31.915Z,20.33
2018-11-23T11:21:01.074Z,16.73
2018-11-23T11:23:30.605Z,19.17
2018-11-23T11:25:59.736Z,16.67
2018-11-23T11:28:29.159Z,17.67
2018-11-23T11:30:58.749Z,15.98
2018-11-23T11:33:28.774Z,16.37
2018-11-23T11:35:58.202Z,20.20
2018-11-23T11:38:27.870Z,14.57
2018-11-23T11:40:57.542Z,14.47
2018-11-23T11:43:27.129Z,13.65
2018-11-23T11:45:56.952Z,15.40
2018-11-23T11:48:26.344Z,17.10
2018-11-23T11:50:55.690Z,20.20
2018-11-23T11:53:24.839Z,13.83
2018-11-23T11:55:54.015Z,12.40
2018-11-23T11:58:23.585Z,10.97
2018-11-23T12:00:53.050Z,16.17
2018-11-23T12:03:22.706Z,13.58
2018-11-23T12:05:52.781Z,14.77
2018-11-23T12:08:21.900Z,16.90
2018-11-23T12:10:51.917Z,15.43
2018-11-23T12:13:21.661Z,14.00
2018-11-23T12:15:51.009Z,15.80
2018-11-23T12:18:20.445Z,16.20
2018-11-23T12:20:49.846Z,15.70
2018-11-23T12:23:19.459Z,13.33
2018-11-23T12:25:48.936Z,12.57
2018-11-23T12:28:18.322Z,18.43
2018-11-23T12:30:47.741Z,12.30
2018-11-23T12:33:16.982Z,15.27
2018-11-23T12:35:46.366Z,12.77
2018-11-23T12:38:15.928Z,12.20
2018-11-23T12:40:45.592Z,17.07
2018-11-23T12:43:14.943Z,11.65
2018-11-23T12:45:44.126Z,13.47
2018-11-23T12:48:13.323Z,15.65
2018-11-23T12:50:42.572Z,15.13
2018-11-23T12:53:11.946Z,10.70
2018-11-23T12:55:41.345Z,10.83
2018-11-23T12:58:10.954Z,14.43
2018-11-23T13:00:40.401Z,11.88
2018-11-23T13:03:09.907Z,15.33
2018-11-23T13:05:39.907Z,12.33
2018-11-23T13:08:09.277Z,13.30
2018-11-23T13:10:38.634Z,11.55
2018-11-23T13:13:08.206Z,12.23
2018-11-23T13:18:25.061Z,13.37
2018-11-23T13:20:54.841Z,14.90
2018-11-23T13:23:24.450Z,10.57
2018-11-23T13:25:53.806Z,12.63
2018-11-23T13:28:23.000Z,13.93
2018-11-23T13:30:52.134Z,11.60
2018-11-23T13:33:21.490Z,12.90
2018-11-23T13:35:51.514Z,14.63
2018-11-23T13:38:21.108Z,8.90
2018-11-23T13:40:50.501Z,12.17
2018-11-23T13:43:19.649Z,13.77
2018-11-23T13:45:49.077Z,14.23
2018-11-23T13:48:20.118Z,14.00
2018-11-23T13:50:48.334Z,8.50
2018-11-23T13:53:17.851Z,9.57
2018-11-23T13:55:47.197Z,6.93
2018-11-23T13:58:17.913Z,10.60
2018-11-23T14:00:47.177Z,13.27
2018-11-23T14:03:16.390Z,9.43
2018-11-23T14:05:45.994Z,9.83
2018-11-23T14:08:15.588Z,10.73
2018-11-23T14:10:45.149Z,10.20
2018-11-23T14:13:14.544Z,9.30
2018-11-23T14:15:43.925Z,11.15
2018-11-23T14:18:13.255Z,11.10
2018-11-23T14:20:42.637Z,11.40
2018-11-23T14:23:11.965Z,10.82
2018-11-23T14:25:41.089Z,10.90
2018-11-23T14:28:10.263Z,9.63
2018-11-23T14:30:39.645Z,9.80
2018-11-23T14:33:09.373Z,12.10
2018-11-23T14:35:38.957Z,7.40
2018-11-23T14:38:08.825Z,9.10
2018-11-23T14:40:37.919Z,7.33
2018-11-23T14:43:07.294Z,12.03
2018-11-23T14:45:36.869Z,10.10
2018-11-23T14:48:07.254Z,8.70
2018-11-23T14:50:41.752Z,7.43
2018-11-23T14:53:10.863Z,7.87
2018-11-23T14:55:40.243Z,10.50
2018-11-23T14:58:09.895Z,10.73
2018-11-23T15:00:39.473Z,7.93
2018-11-23T15:03:09.232Z,10.43
2018-11-23T15:05:38.988Z,9.67
2018-11-23T15:08:08.739Z,8.73
2018-11-23T15:10:38.365Z,12.93
2018-11-23T15:13:07.676Z,7.37
2018-11-23T15:15:38.343Z,13.65
2018-11-23T15:18:08.109Z,13.40
2018-11-23T15:20:38.780Z,12.47
2018-11-23T15:23:09.847Z,11.60
2018-11-23T15:25:39.218Z,10.93
2018-11-23T15:28:08.993Z,10.48
2018-11-23T15:30:39.195Z,11.53
2018-11-23T15:33:09.420Z,15.70
2018-11-23T15:35:39.488Z,13.83
2018-11-23T15:38:11.121Z,11.10
2018-11-23T15:40:40.466Z,12.83
2018-11-23T15:43:11.971Z,12.70
2018-11-23T15:45:41.381Z,14.10
2018-11-23T15:48:10.826Z,12.37
2018-11-23T15:50:41.196Z,15.40
2018-11-23T15:53:12.038Z,15.97
2018-11-23T15:55:41.730Z,16.13
2018-11-23T15:58:12.912Z,12.13
2018-11-23T16:00:43.609Z,10.00
2018-11-23T16:03:13.954Z,14.70
2018-11-23T16:05:44.028Z,13.20
2018-11-23T16:08:14.820Z,13.30
2018-11-23T16:10:43.928Z,8.00
2018-11-23T16:13:13.582Z,10.30
2018-11-23T16:15:42.713Z,7.70
2018-11-23T16:18:12.238Z,11.23
2018-11-23T16:20:42.754Z,9.13
2018-11-23T16:23:14.174Z,9.07
2018-11-23T16:25:43.831Z,10.90
2018-11-23T16:28:13.573Z,12.83
2018-11-23T16:30:45.030Z,9.20
2018-11-23T16:33:17.224Z,10.53
2018-11-23T16:35:46.392Z,10.27
2018-11-23T16:38:18.327Z,8.17
2018-11-23T16:40:50.582Z,11.73
2018-11-23T16:43:20.182Z,11.00
2018-11-23T16:45:49.769Z,10.07
2018-11-23T16:48:20.078Z,14.43
2018-11-23T16:50:49.766Z,7.17
2018-11-23T16:53:19.127Z,8.17
2018-11-23T16:55:48.550Z,12.23
2018-11-23T16:58:18.198Z,9.53
2018-11-23T17:00:48.817Z,9.33
2018-11-23T17:03:20.064Z,8.90
2018-11-23T17:05:51.017Z,7.97
2018-11-23T17:08:20.977Z,6.90
2018-11-23T17:10:50.410Z,11.23
2018-11-23T17:13:19.770Z,8.10
2018-11-23T17:15:49.149Z,8.57
2018-11-23T17:18:18.339Z,9.17
2018-11-23T17:20:47.798Z,10.00
2018-11-23T17:23:17.374Z,8.78
2018-11-23T17:25:47.368Z,14.33
2018-11-23T17:28:16.491Z,10.10
2018-11-23T17:30:45.767Z,9.03
2018-11-23T17:33:15.049Z,8.73
2018-11-23T17:35:44.631Z,7.50
2018-11-23T17:38:14.995Z,7.10
2018-11-23T17:40:44.334Z,16.67
2018-11-23T17:43:14.191Z,6.25
2018-11-23T17:45:43.868Z,8.17
2018-11-23T17:48:13.201Z,5.70
2018-11-23T17:50:42.610Z,9.77
2018-11-23T17:55:48.434Z,6.53
2018-11-23T17:58:17.884Z,6.62
2018-11-23T18:00:46.985Z,10.43
2018-11-23T18:03:16.098Z,8.20
2018-11-23T18:05:45.467Z,9.27
2018-11-23T18:08:14.853Z,8.80
2018-11-23T18:10:43.981Z,6.03
2018-11-23T18:13:13.763Z,10.43
2018-11-23T18:15:42.860Z,7.90
2018-11-23T18:18:12.875Z,7.60
2018-11-23T18:20:42.305Z,8.93
2018-11-23T18:23:11.906Z,8.87
2018-11-23T18:25:41.537Z,26.68
2018-11-23T18:28:10.950Z,22.23
2018-11-23T18:30:40.431Z,9.73
2018-11-23T18:33:10.006Z,11.07
2018-11-23T18:35:39.632Z,9.90
2018-11-23T18:38:09.426Z,9.80
2018-11-23T18:40:38.774Z,7.40
2018-11-23T18:43:08.170Z,9.20
2018-11-23T18:45:37.861Z,10.00
2018-11-23T18:48:07.196Z,6.10
2018-11-23T18:50:36.673Z,8.20
2018-11-23T18:53:06.270Z,11.93
2018-11-23T18:55:35.642Z,8.60
2018-11-23T18:58:06.083Z,8.13
2018-11-23T19:00:35.708Z,10.23
2018-11-23T19:03:05.677Z,6.62
2018-11-23T19:05:35.777Z,7.80
2018-11-23T19:08:05.613Z,7.83
2018-11-23T19:10:35.192Z,8.98
2018-11-23T19:13:05.061Z,11.10
2018-11-23T19:15:34.486Z,9.00
2018-11-23T19:18:04.082Z,11.47
2018-11-23T19:20:33.882Z,10.40
2018-11-23T19:23:03.495Z,11.27
2018-11-23T19:25:32.855Z,9.13
2018-11-23T19:28:01.974Z,8.53
2018-11-23T19:30:31.110Z,8.33
2018-11-23T19:33:01.641Z,5.83
2018-11-23T19:35:30.029Z,8.85
2018-11-23T19:37:59.560Z,12.93
2018-11-23T19:40:29.144Z,9.20
2018-11-23T19:42:58.738Z,6.75
2018-11-23T19:45:28.114Z,10.40
2018-11-23T19:47:57.775Z,13.47
2018-11-23T19:50:27.845Z,11.03
2018-11-23T19:52:57.193Z,8.80
2018-11-23T19:55:26.339Z,7.07
2018-11-23T19:57:55.771Z,8.57
2018-11-23T20:00:25.597Z,7.30
2018-11-23T20:02:54.760Z,10.80
2018-11-23T20:05:23.910Z,11.67
2018-11-23T20:07:54.557Z,9.83
2018-11-23T20:10:23.938Z,9.20
2018-11-23T20:12:57.412Z,11.40
2018-11-23T20:15:27.128Z,12.10
2018-11-23T20:17:56.732Z,7.17
2018-11-23T20:20:26.246Z,9.37
2018-11-23T20:22:55.576Z,8.97
2018-11-23T20:25:25.013Z,9.37
2018-11-23T20:27:54.169Z,7.60
2018-11-23T20:30:23.834Z,10.20
2018-11-23T20:32:53.213Z,8.20
2018-11-23T20:35:23.474Z,9.58
2018-11-23T20:37:52.846Z,10.07
2018-11-23T20:40:22.554Z,9.33
2018-11-23T20:42:52.288Z,11.70
2018-11-23T20:45:21.753Z,10.75
2018-11-23T20:47:51.157Z,7.53
2018-11-23T20:50:20.621Z,8.37
2018-11-23T20:52:50.436Z,7.73
2018-11-23T20:55:20.318Z,10.00
2018-11-23T20:57:50.080Z,12.33
2018-11-23T21:00:22.423Z,11.10
2018-11-23T21:02:52.873Z,8.07
2018-11-23T21:05:22.269Z,10.00
2018-11-23T21:07:52.246Z,10.55
2018-11-23T21:10:25.627Z,13.83
2018-11-23T21:12:55.107Z,13.10
2018-11-23T21:15:25.137Z,12.73
2018-11-23T21:17:54.734Z,8.33
2018-11-23T21:20:24.288Z,11.23
2018-11-23T21:22:53.412Z,13.53
2018-11-23T21:25:29.109Z,11.27
2018-11-23T21:27:58.326Z,10.60
2018-11-23T21:30:27.547Z,13.60
2018-11-23T21:32:56.700Z,10.97
2018-11-23T21:35:26.459Z,11.43
2018-11-23T21:37:55.856Z,10.18
2018-11-23T21:40:25.421Z,11.33
2018-11-23T21:42:55.116Z,10.98
2018-11-23T21:45:24.496Z,8.33
2018-11-23T21:47:53.977Z,11.87
2018-11-23T21:50:25.429Z,7.83
2018-11-23T21:52:53.984Z,9.97
2018-11-23T21:55:24.038Z,11.30
2018-11-23T21:57:53.928Z,11.53
2018-11-23T22:00:23.341Z,10.60
2018-11-23T22:02:52.972Z,10.97
2018-11-23T22:05:22.641Z,9.93
2018-11-23T22:07:52.387Z,12.07
2018-11-23T22:10:22.085Z,12.30
2018-11-23T22:12:51.448Z,13.23
2018-11-23T22:15:22.207Z,11.70
2018-11-23T22:17:53.317Z,9.03
2018-11-23T22:20:24.235Z,13.55
2018-11-23T22:22:53.722Z,13.13
2018-11-23T22:25:23.235Z,11.20
2018-11-23T22:27:52.459Z,10.70
2018-11-23T22:30:26.045Z,10.15
2018-11-23T22:32:55.701Z,11.20
2018-11-23T22:35:25.806Z,11.77
2018-11-23T22:37:55.686Z,13.50
2018-11-23T22:40:24.897Z,12.30
2018-11-23T22:42:55.857Z,10.70
2018-11-23T22:45:25.220Z,12.70
2018-11-23T22:47:54.583Z,15.20
2018-11-23T22:50:24.652Z,12.80
2018-11-23T22:52:54.189Z,10.37
2018-11-23T22:55:23.360Z,13.20
2018-11-23T22:57:52.943Z,11.53
2018-11-23T23:00:25.618Z,12.27
2018-11-23T23:02:55.560Z,11.80
2018-11-23T23:05:24.947Z,13.43
2018-11-23T23:07:54.264Z,12.90
2018-11-23T23:10:23.473Z,12.17
2018-11-23T23:12:53.152Z,11.30
2018-11-23T23:15:22.658Z,13.90
2018-11-23T23:17:52.280Z,11.00
2018-11-23T23:20:22.353Z,13.80
2018-11-23T23:22:51.492Z,13.23
2018-11-23T23:25:21.060Z,13.27
2018-11-23T23:27:50.687Z,11.03
2018-11-23T23:30:20.496Z,15.07
2018-11-23T23:32:49.961Z,12.53
2018-11-23T23:35:19.629Z,14.40
2018-11-23T23:37:49.476Z,19.23
2018-11-23T23:40:19.097Z,12.00
2018-11-23T23:42:48.536Z,11.60
2018-11-23T23:45:18.645Z,16.00
2018-11-23T23:47:48.400Z,14.07
2018-11-23T23:50:21.060Z,12.67
2018-11-23T23:52:51.078Z,13.32
2018-11-23T23:55:20.689Z,14.13
2018-11-23T23:57:51.082Z,14.03
